Juneau, AK

8:15 AM AKST on February 12, 2016 (GMT -0900)
Juneau International | | Change Station
CLOSE
Current Station
Airport
Location: Juneau,
Elevation: 23 ft
Nearby Weather Stations

Elev 23 ft 58.35 °N, 134.58 °W | Updated 22 minutes ago

Light Rain
Light Rain
41 °F
Feels Like 34 °F
N
14
Wind Variable Wind from East

Today
High -- | Low -- °F
--% Chance of Precip.
Yesterday
High -- | Low -- °F
Precip. -- in
Pressure 29.68 in
Visibility 10.0 miles
Clouds Few 500 ft
Mostly Cloudy 3800 ft
Overcast 5000 ft
Windchill 34 °F
Dew Point 40 °F
Humidity 96%
Rainfall 0.12 in
Snow Depth Not available.
7:38 AM 4:47 PM
Waxing Crescent, 22% visible
METAR PAJN 121653Z 09012KT 10SM -RA FEW005 BKN038 OVC050 05/04 A2968 RMK AO2 SLP049 P0008 T00500044
Pressure 29.68 in
Visibility 10.0 miles
Clouds Few 500 ft
Mostly Cloudy 3800 ft
Overcast 5000 ft
Windchill 34 °F
Dew Point 40 °F
Humidity 96%
Rainfall 0.12 in
Snow Depth Not available.
7:38 AM 4:47 PM
Waxing Crescent, 22% visible
METAR PAJN 121653Z 09012KT 10SM -RA FEW005 BKN038 OVC050 05/04 A2968 RMK AO2 SLP049 P0008 T00500044

10-Day Weather Forecast

Almanac

Astronomy

Feb. 12, 2016 Rise Set
Actual Time
Civil Twilight
Nautical Twilight
Astronomical Twilight
Moon
Length of Visible Light
Length of Day
Tomorrow will be .
, % of the Moon is Illuminated

Today's Extremes

State Highs State Lows

Community

WunderPhotos

Upload Photos

1,892,353 photos uploaded!

WunderBlog® & News

Nearby

Air Quality

  Air Quality AQ Index Pollutant
Not available.

Snow Depth

Station Depth Elevation

Earthquake Activity

City Distance Mag. Time & Date
Minimum magnitude displayed is 2.5.

Coastal Water Temperatures

Place Temperature

Stations

Nearby Weather Stations

Station Location Temp. Windchill Dew Point Humidity Wind Precip. Elev Updated Type
                   

Watches & Warnings

There are currently no watches in effect.